sensor_id;sensor_type;location;lat;lon;timestamp;P1;durP1;ratioP1;P2;durP2;ratioP2
73893;SDS011;62699;50.534;12.784;2023-06-22T00:01:43;14.43;;;9.32;;
73893;SDS011;62699;50.534;12.784;2023-06-22T00:06:44;12.43;;;8.40;;
73893;SDS011;62699;50.534;12.784;2023-06-22T00:11:45;12.85;;;8.68;;
73893;SDS011;62699;50.534;12.784;2023-06-22T00:16:46;12.95;;;8.68;;
73893;SDS011;62699;50.534;12.784;2023-06-22T00:21:49;13.30;;;9.27;;
73893;SDS011;62699;50.534;12.784;2023-06-22T00:26:52;12.27;;;8.85;;
73893;SDS011;62699;50.534;12.784;2023-06-22T00:31:53;15.10;;;8.98;;
73893;SDS011;62699;50.534;12.784;2023-06-22T00:36:54;13.63;;;9.98;;
73893;SDS011;62699;50.534;12.784;2023-06-22T00:41:54;13.98;;;9.52;;
73893;SDS011;62699;50.534;12.784;2023-06-22T00:46:55;11.82;;;8.82;;
73893;SDS011;62699;50.534;12.784;2023-06-22T00:51:57;12.65;;;8.60;;
73893;SDS011;62699;50.534;12.784;2023-06-22T00:56:57;11.90;;;9.07;;
73893;SDS011;62699;50.534;12.784;2023-06-22T01:01:58;12.88;;;8.77;;
73893;SDS011;62699;50.534;12.784;2023-06-22T01:07:00;13.57;;;9.32;;
73893;SDS011;62699;50.534;12.784;2023-06-22T01:12:11;13.27;;;8.48;;
73893;SDS011;62699;50.534;12.784;2023-06-22T01:17:12;13.07;;;9.07;;
73893;SDS011;62699;50.534;12.784;2023-06-22T01:22:17;13.20;;;8.70;;
73893;SDS011;62699;50.534;12.784;2023-06-22T01:32:41;12.35;;;7.88;;
73893;SDS011;62699;50.534;12.784;2023-06-22T01:37:42;12.77;;;9.52;;
73893;SDS011;62699;50.534;12.784;2023-06-22T01:42:44;11.38;;;8.57;;
73893;SDS011;62699;50.534;12.784;2023-06-22T01:47:44;14.25;;;9.10;;
73893;SDS011;62699;50.534;12.784;2023-06-22T01:52:45;13.45;;;9.00;;
73893;SDS011;62699;50.534;12.784;2023-06-22T01:57:45;14.73;;;9.40;;
73893;SDS011;62699;50.534;12.784;2023-06-22T02:02:53;12.60;;;8.13;;
73893;SDS011;62699;50.534;12.784;2023-06-22T02:08:06;14.35;;;8.48;;
73893;SDS011;62699;50.534;12.784;2023-06-22T02:13:10;14.80;;;8.80;;
73893;SDS011;62699;50.534;12.784;2023-06-22T02:18:11;12.88;;;9.00;;
73893;SDS011;62699;50.534;12.784;2023-06-22T02:23:12;12.15;;;9.30;;
73893;SDS011;62699;50.534;12.784;2023-06-22T02:28:13;12.73;;;8.82;;
73893;SDS011;62699;50.534;12.784;2023-06-22T02:33:13;11.32;;;8.10;;
73893;SDS011;62699;50.534;12.784;2023-06-22T02:38:13;13.05;;;8.80;;
73893;SDS011;62699;50.534;12.784;2023-06-22T02:43:14;13.30;;;8.70;;
73893;SDS011;62699;50.534;12.784;2023-06-22T02:48:14;11.88;;;8.07;;
73893;SDS011;62699;50.534;12.784;2023-06-22T02:53:15;13.05;;;8.32;;
73893;SDS011;62699;50.534;12.784;2023-06-22T02:58:16;13.65;;;8.00;;
73893;SDS011;62699;50.534;12.784;2023-06-22T03:03:17;13.30;;;8.40;;
73893;SDS011;62699;50.534;12.784;2023-06-22T03:08:19;12.35;;;8.45;;
73893;SDS011;62699;50.534;12.784;2023-06-22T03:13:19;12.85;;;8.00;;
73893;SDS011;62699;50.534;12.784;2023-06-22T03:18:19;11.93;;;8.77;;
73893;SDS011;62699;50.534;12.784;2023-06-22T03:23:22;12.32;;;8.38;;
73893;SDS011;62699;50.534;12.784;2023-06-22T03:28:22;11.60;;;8.40;;
73893;SDS011;62699;50.534;12.784;2023-06-22T03:33:22;14.85;;;9.02;;
73893;SDS011;62699;50.534;12.784;2023-06-22T03:38:24;9.50;;;6.47;;
73893;SDS011;62699;50.534;12.784;2023-06-22T03:43:24;10.90;;;7.55;;
73893;SDS011;62699;50.534;12.784;2023-06-22T03:48:25;13.10;;;8.23;;
73893;SDS011;62699;50.534;12.784;2023-06-22T03:53:25;14.65;;;8.18;;
73893;SDS011;62699;50.534;12.784;2023-06-22T03:58:25;12.90;;;8.23;;
73893;SDS011;62699;50.534;12.784;2023-06-22T04:03:26;12.57;;;7.50;;
73893;SDS011;62699;50.534;12.784;2023-06-22T04:08:26;12.32;;;7.72;;
73893;SDS011;62699;50.534;12.784;2023-06-22T04:13:26;11.32;;;7.95;;
73893;SDS011;62699;50.534;12.784;2023-06-22T04:18:26;11.13;;;7.10;;
73893;SDS011;62699;50.534;12.784;2023-06-22T04:23:26;13.88;;;7.63;;
73893;SDS011;62699;50.534;12.784;2023-06-22T04:28:27;14.40;;;7.35;;
73893;SDS011;62699;50.534;12.784;2023-06-22T04:33:28;12.25;;;7.18;;
73893;SDS011;62699;50.534;12.784;2023-06-22T04:38:29;11.07;;;7.10;;
73893;SDS011;62699;50.534;12.784;2023-06-22T04:43:33;11.27;;;7.72;;
73893;SDS011;62699;50.534;12.784;2023-06-22T04:48:34;12.48;;;8.02;;
73893;SDS011;62699;50.534;12.784;2023-06-22T04:53:34;10.75;;;7.43;;
73893;SDS011;62699;50.534;12.784;2023-06-22T04:58:34;9.75;;;6.25;;
73893;SDS011;62699;50.534;12.784;2023-06-22T05:03:34;10.47;;;6.17;;
73893;SDS011;62699;50.534;12.784;2023-06-22T05:08:36;11.30;;;6.22;;
73893;SDS011;62699;50.534;12.784;2023-06-22T05:13:37;10.13;;;6.30;;
73893;SDS011;62699;50.534;12.784;2023-06-22T05:18:37;9.35;;;6.55;;
73893;SDS011;62699;50.534;12.784;2023-06-22T05:23:37;10.45;;;7.00;;
73893;SDS011;62699;50.534;12.784;2023-06-22T05:28:37;10.27;;;6.65;;
73893;SDS011;62699;50.534;12.784;2023-06-22T05:33:38;10.90;;;7.20;;
73893;SDS011;62699;50.534;12.784;2023-06-22T05:38:38;10.27;;;7.45;;
73893;SDS011;62699;50.534;12.784;2023-06-22T05:43:39;9.85;;;6.88;;
73893;SDS011;62699;50.534;12.784;2023-06-22T05:48:40;11.07;;;6.97;;
73893;SDS011;62699;50.534;12.784;2023-06-22T05:53:40;10.57;;;6.50;;
73893;SDS011;62699;50.534;12.784;2023-06-22T05:58:40;9.60;;;6.40;;
73893;SDS011;62699;50.534;12.784;2023-06-22T06:03:41;10.32;;;5.93;;
73893;SDS011;62699;50.534;12.784;2023-06-22T06:08:41;9.70;;;6.18;;
73893;SDS011;62699;50.534;12.784;2023-06-22T06:13:41;9.37;;;6.23;;
73893;SDS011;62699;50.534;12.784;2023-06-22T06:18:42;9.30;;;5.33;;
73893;SDS011;62699;50.534;12.784;2023-06-22T06:23:42;8.73;;;5.85;;
73893;SDS011;62699;50.534;12.784;2023-06-22T06:28:43;9.00;;;5.07;;
73893;SDS011;62699;50.534;12.784;2023-06-22T06:33:43;8.25;;;4.75;;
73893;SDS011;62699;50.534;12.784;2023-06-22T06:38:44;8.48;;;5.07;;
73893;SDS011;62699;50.534;12.784;2023-06-22T06:43:45;8.57;;;5.40;;
73893;SDS011;62699;50.534;12.784;2023-06-22T06:48:46;7.82;;;5.07;;
73893;SDS011;62699;50.534;12.784;2023-06-22T06:53:47;6.22;;;4.32;;
73893;SDS011;62699;50.534;12.784;2023-06-22T06:58:49;6.97;;;4.43;;
73893;SDS011;62699;50.534;12.784;2023-06-22T07:03:50;8.55;;;5.50;;
73893;SDS011;62699;50.534;12.784;2023-06-22T07:08:50;10.85;;;5.25;;
73893;SDS011;62699;50.534;12.784;2023-06-22T07:13:51;8.90;;;5.20;;
73893;SDS011;62699;50.534;12.784;2023-06-22T07:18:51;7.18;;;4.95;;
73893;SDS011;62699;50.534;12.784;2023-06-22T07:23:51;8.32;;;5.18;;
73893;SDS011;62699;50.534;12.784;2023-06-22T07:28:52;7.65;;;5.03;;
73893;SDS011;62699;50.534;12.784;2023-06-22T07:33:52;9.65;;;5.30;;
73893;SDS011;62699;50.534;12.784;2023-06-22T07:38:54;8.30;;;5.50;;
73893;SDS011;62699;50.534;12.784;2023-06-22T07:43:54;8.53;;;5.70;;
73893;SDS011;62699;50.534;12.784;2023-06-22T07:48:56;9.00;;;5.80;;
73893;SDS011;62699;50.534;12.784;2023-06-22T07:53:57;8.60;;;5.97;;
73893;SDS011;62699;50.534;12.784;2023-06-22T07:58:57;10.32;;;5.75;;
73893;SDS011;62699;50.534;12.784;2023-06-22T08:03:59;9.32;;;5.80;;
73893;SDS011;62699;50.534;12.784;2023-06-22T08:08:59;10.80;;;6.37;;
73893;SDS011;62699;50.534;12.784;2023-06-22T08:13:59;9.30;;;6.05;;
73893;SDS011;62699;50.534;12.784;2023-06-22T08:19:00;14.73;;;6.75;;
73893;SDS011;62699;50.534;12.784;2023-06-22T08:24:00;8.93;;;5.95;;
73893;SDS011;62699;50.534;12.784;2023-06-22T08:29:00;10.02;;;6.28;;
73893;SDS011;62699;50.534;12.784;2023-06-22T08:34:00;10.23;;;6.75;;
73893;SDS011;62699;50.534;12.784;2023-06-22T08:39:02;10.15;;;6.75;;
73893;SDS011;62699;50.534;12.784;2023-06-22T08:44:04;9.27;;;6.63;;
73893;SDS011;62699;50.534;12.784;2023-06-22T08:49:05;10.68;;;5.78;;
73893;SDS011;62699;50.534;12.784;2023-06-22T08:54:06;11.82;;;6.35;;
73893;SDS011;62699;50.534;12.784;2023-06-22T08:59:06;9.25;;;6.75;;
73893;SDS011;62699;50.534;12.784;2023-06-22T09:04:11;9.55;;;6.57;;
73893;SDS011;62699;50.534;12.784;2023-06-22T09:09:12;9.75;;;6.13;;
73893;SDS011;62699;50.534;12.784;2023-06-22T09:14:12;10.43;;;6.15;;
73893;SDS011;62699;50.534;12.784;2023-06-22T09:19:13;11.13;;;7.47;;
73893;SDS011;62699;50.534;12.784;2023-06-22T09:24:13;11.90;;;6.45;;
73893;SDS011;62699;50.534;12.784;2023-06-22T09:29:14;9.38;;;6.10;;
73893;SDS011;62699;50.534;12.784;2023-06-22T09:34:15;9.13;;;6.20;;
73893;SDS011;62699;50.534;12.784;2023-06-22T09:39:20;9.77;;;6.40;;
73893;SDS011;62699;50.534;12.784;2023-06-22T09:44:21;8.52;;;5.78;;
73893;SDS011;62699;50.534;12.784;2023-06-22T09:49:21;9.02;;;5.90;;
73893;SDS011;62699;50.534;12.784;2023-06-22T09:54:22;10.10;;;6.00;;
73893;SDS011;62699;50.534;12.784;2023-06-22T09:59:23;8.68;;;5.35;;
73893;SDS011;62699;50.534;12.784;2023-06-22T10:04:24;8.95;;;5.60;;
73893;SDS011;62699;50.534;12.784;2023-06-22T10:09:26;10.05;;;6.38;;
73893;SDS011;62699;50.534;12.784;2023-06-22T10:14:28;12.27;;;6.57;;
73893;SDS011;62699;50.534;12.784;2023-06-22T10:19:30;8.93;;;6.25;;
73893;SDS011;62699;50.534;12.784;2023-06-22T10:24:31;10.15;;;5.75;;
73893;SDS011;62699;50.534;12.784;2023-06-22T10:29:31;10.80;;;5.47;;
73893;SDS011;62699;50.534;12.784;2023-06-22T10:34:32;10.52;;;5.47;;
73893;SDS011;62699;50.534;12.784;2023-06-22T10:39:33;8.20;;;5.22;;
73893;SDS011;62699;50.534;12.784;2023-06-22T10:44:35;10.40;;;5.50;;
73893;SDS011;62699;50.534;12.784;2023-06-22T10:49:36;9.80;;;5.65;;
73893;SDS011;62699;50.534;12.784;2023-06-22T10:54:37;8.20;;;5.37;;
73893;SDS011;62699;50.534;12.784;2023-06-22T10:59:37;11.57;;;5.63;;
73893;SDS011;62699;50.534;12.784;2023-06-22T11:04:39;8.68;;;5.53;;
73893;SDS011;62699;50.534;12.784;2023-06-22T11:09:39;11.98;;;6.25;;
73893;SDS011;62699;50.534;12.784;2023-06-22T11:14:41;17.02;;;5.85;;
73893;SDS011;62699;50.534;12.784;2023-06-22T11:19:43;10.45;;;6.28;;
73893;SDS011;62699;50.534;12.784;2023-06-22T11:24:45;8.82;;;6.05;;
73893;SDS011;62699;50.534;12.784;2023-06-22T11:29:46;10.93;;;6.00;;
73893;SDS011;62699;50.534;12.784;2023-06-22T11:34:48;9.45;;;6.45;;
73893;SDS011;62699;50.534;12.784;2023-06-22T11:39:50;13.07;;;6.55;;
73893;SDS011;62699;50.534;12.784;2023-06-22T11:44:50;11.67;;;7.40;;
73893;SDS011;62699;50.534;12.784;2023-06-22T11:49:51;13.13;;;6.90;;
73893;SDS011;62699;50.534;12.784;2023-06-22T11:54:54;11.68;;;6.60;;
73893;SDS011;62699;50.534;12.784;2023-06-22T11:59:55;11.00;;;6.97;;
73893;SDS011;62699;50.534;12.784;2023-06-22T12:04:56;10.15;;;6.88;;
73893;SDS011;62699;50.534;12.784;2023-06-22T12:09:59;12.25;;;6.90;;
73893;SDS011;62699;50.534;12.784;2023-06-22T12:15:00;10.35;;;6.70;;
73893;SDS011;62699;50.534;12.784;2023-06-22T12:20:03;11.90;;;6.88;;
73893;SDS011;62699;50.534;12.784;2023-06-22T12:25:06;9.50;;;6.60;;
73893;SDS011;62699;50.534;12.784;2023-06-22T12:30:08;11.15;;;7.13;;
73893;SDS011;62699;50.534;12.784;2023-06-22T12:35:08;12.07;;;6.97;;
73893;SDS011;62699;50.534;12.784;2023-06-22T12:40:13;10.85;;;7.00;;
73893;SDS011;62699;50.534;12.784;2023-06-22T12:45:14;10.43;;;6.33;;
73893;SDS011;62699;50.534;12.784;2023-06-22T12:50:14;10.27;;;6.32;;
73893;SDS011;62699;50.534;12.784;2023-06-22T12:55:14;9.77;;;6.55;;
73893;SDS011;62699;50.534;12.784;2023-06-22T13:00:15;12.30;;;6.13;;
73893;SDS011;62699;50.534;12.784;2023-06-22T13:05:16;10.32;;;7.20;;
73893;SDS011;62699;50.534;12.784;2023-06-22T13:10:16;10.07;;;6.90;;
73893;SDS011;62699;50.534;12.784;2023-06-22T13:15:17;10.55;;;6.28;;
73893;SDS011;62699;50.534;12.784;2023-06-22T13:20:17;12.80;;;6.40;;
73893;SDS011;62699;50.534;12.784;2023-06-22T13:25:19;9.43;;;5.88;;
73893;SDS011;62699;50.534;12.784;2023-06-22T13:30:22;12.25;;;7.20;;
73893;SDS011;62699;50.534;12.784;2023-06-22T13:35:22;9.40;;;6.22;;
73893;SDS011;62699;50.534;12.784;2023-06-22T13:40:24;12.35;;;6.18;;
73893;SDS011;62699;50.534;12.784;2023-06-22T13:45:26;10.07;;;5.93;;
73893;SDS011;62699;50.534;12.784;2023-06-22T13:50:27;11.35;;;7.13;;
73893;SDS011;62699;50.534;12.784;2023-06-22T13:55:29;9.88;;;6.28;;
73893;SDS011;62699;50.534;12.784;2023-06-22T14:00:30;11.07;;;6.70;;
73893;SDS011;62699;50.534;12.784;2023-06-22T14:05:31;10.82;;;6.70;;
73893;SDS011;62699;50.534;12.784;2023-06-22T14:10:32;13.85;;;6.63;;
73893;SDS011;62699;50.534;12.784;2023-06-22T14:15:32;12.13;;;7.20;;
73893;SDS011;62699;50.534;12.784;2023-06-22T14:20:32;11.18;;;6.60;;
73893;SDS011;62699;50.534;12.784;2023-06-22T14:25:36;10.63;;;6.38;;
73893;SDS011;62699;50.534;12.784;2023-06-22T14:30:36;10.10;;;5.87;;
73893;SDS011;62699;50.534;12.784;2023-06-22T14:35:36;10.65;;;6.90;;
73893;SDS011;62699;50.534;12.784;2023-06-22T14:40:37;11.77;;;6.63;;
73893;SDS011;62699;50.534;12.784;2023-06-22T14:45:37;9.90;;;6.63;;
73893;SDS011;62699;50.534;12.784;2023-06-22T14:50:37;9.95;;;6.30;;
73893;SDS011;62699;50.534;12.784;2023-06-22T14:55:37;11.23;;;6.70;;
73893;SDS011;62699;50.534;12.784;2023-06-22T15:00:38;11.57;;;6.50;;
73893;SDS011;62699;50.534;12.784;2023-06-22T15:05:39;11.90;;;6.60;;
73893;SDS011;62699;50.534;12.784;2023-06-22T15:10:40;9.73;;;6.15;;
73893;SDS011;62699;50.534;12.784;2023-06-22T15:15:40;11.48;;;7.00;;
73893;SDS011;62699;50.534;12.784;2023-06-22T15:20:40;15.02;;;6.90;;
73893;SDS011;62699;50.534;12.784;2023-06-22T15:25:42;13.57;;;6.32;;
73893;SDS011;62699;50.534;12.784;2023-06-22T15:30:44;12.43;;;6.82;;
73893;SDS011;62699;50.534;12.784;2023-06-22T15:35:44;12.57;;;6.63;;
73893;SDS011;62699;50.534;12.784;2023-06-22T15:40:46;11.60;;;6.40;;
73893;SDS011;62699;50.534;12.784;2023-06-22T15:45:47;10.38;;;6.50;;
73893;SDS011;62699;50.534;12.784;2023-06-22T15:50:49;10.68;;;7.03;;
73893;SDS011;62699;50.534;12.784;2023-06-22T15:55:50;12.00;;;6.65;;
73893;SDS011;62699;50.534;12.784;2023-06-22T16:00:51;11.00;;;7.03;;
73893;SDS011;62699;50.534;12.784;2023-06-22T16:05:51;13.57;;;6.60;;
73893;SDS011;62699;50.534;12.784;2023-06-22T16:10:52;9.55;;;6.35;;
73893;SDS011;62699;50.534;12.784;2023-06-22T16:15:52;11.35;;;6.75;;
73893;SDS011;62699;50.534;12.784;2023-06-22T16:20:52;12.20;;;7.07;;
73893;SDS011;62699;50.534;12.784;2023-06-22T16:25:53;14.85;;;6.47;;
73893;SDS011;62699;50.534;12.784;2023-06-22T16:30:55;12.45;;;7.10;;
73893;SDS011;62699;50.534;12.784;2023-06-22T16:35:57;12.02;;;7.57;;
73893;SDS011;62699;50.534;12.784;2023-06-22T16:40:59;13.10;;;8.10;;
73893;SDS011;62699;50.534;12.784;2023-06-22T16:45:59;11.18;;;7.25;;
73893;SDS011;62699;50.534;12.784;2023-06-22T16:51:00;14.90;;;7.25;;
73893;SDS011;62699;50.534;12.784;2023-06-22T16:56:01;14.35;;;7.43;;
73893;SDS011;62699;50.534;12.784;2023-06-22T17:01:05;11.02;;;7.60;;
73893;SDS011;62699;50.534;12.784;2023-06-22T17:06:08;13.50;;;7.03;;
73893;SDS011;62699;50.534;12.784;2023-06-22T17:11:11;10.88;;;7.03;;
73893;SDS011;62699;50.534;12.784;2023-06-22T17:16:12;12.77;;;7.55;;
73893;SDS011;62699;50.534;12.784;2023-06-22T17:21:21;10.68;;;8.15;;
73893;SDS011;62699;50.534;12.784;2023-06-22T17:26:24;12.60;;;7.22;;
73893;SDS011;62699;50.534;12.784;2023-06-22T17:31:25;15.32;;;7.78;;
73893;SDS011;62699;50.534;12.784;2023-06-22T17:36:42;12.73;;;7.78;;
73893;SDS011;62699;50.534;12.784;2023-06-22T17:41:53;12.45;;;8.23;;
73893;SDS011;62699;50.534;12.784;2023-06-22T17:46:55;12.77;;;7.88;;
73893;SDS011;62699;50.534;12.784;2023-06-22T17:51:57;11.07;;;7.85;;
73893;SDS011;62699;50.534;12.784;2023-06-22T17:56:57;11.88;;;7.50;;
73893;SDS011;62699;50.534;12.784;2023-06-22T18:02:00;13.75;;;8.80;;
73893;SDS011;62699;50.534;12.784;2023-06-22T18:07:06;14.55;;;8.82;;
73893;SDS011;62699;50.534;12.784;2023-06-22T18:12:09;13.43;;;8.20;;
73893;SDS011;62699;50.534;12.784;2023-06-22T18:17:09;17.17;;;7.60;;
73893;SDS011;62699;50.534;12.784;2023-06-22T18:22:10;12.98;;;8.98;;
73893;SDS011;62699;50.534;12.784;2023-06-22T18:27:10;12.68;;;8.27;;
73893;SDS011;62699;50.534;12.784;2023-06-22T18:32:11;12.13;;;8.57;;
73893;SDS011;62699;50.534;12.784;2023-06-22T18:37:14;12.75;;;9.35;;
73893;SDS011;62699;50.534;12.784;2023-06-22T18:42:15;11.90;;;8.82;;
73893;SDS011;62699;50.534;12.784;2023-06-22T18:47:19;13.13;;;8.80;;
73893;SDS011;62699;50.534;12.784;2023-06-22T18:52:26;11.80;;;9.00;;
73893;SDS011;62699;50.534;12.784;2023-06-22T18:57:28;10.57;;;8.10;;
73893;SDS011;62699;50.534;12.784;2023-06-22T19:12:53;13.38;;;8.90;;
73893;SDS011;62699;50.534;12.784;2023-06-22T19:17:56;13.98;;;9.20;;
73893;SDS011;62699;50.534;12.784;2023-06-22T19:23:00;15.07;;;9.23;;
73893;SDS011;62699;50.534;12.784;2023-06-22T19:28:01;12.50;;;9.38;;
73893;SDS011;62699;50.534;12.784;2023-06-22T19:33:02;13.07;;;8.88;;
73893;SDS011;62699;50.534;12.784;2023-06-22T19:38:08;15.32;;;8.82;;
73893;SDS011;62699;50.534;12.784;2023-06-22T19:43:10;12.05;;;8.45;;
73893;SDS011;62699;50.534;12.784;2023-06-22T19:48:13;15.50;;;8.35;;
73893;SDS011;62699;50.534;12.784;2023-06-22T19:53:14;14.48;;;9.98;;
73893;SDS011;62699;50.534;12.784;2023-06-22T19:58:16;12.68;;;8.30;;
73893;SDS011;62699;50.534;12.784;2023-06-22T20:03:17;12.13;;;8.68;;
73893;SDS011;62699;50.534;12.784;2023-06-22T20:08:19;13.57;;;8.73;;
73893;SDS011;62699;50.534;12.784;2023-06-22T20:13:20;13.25;;;8.75;;
73893;SDS011;62699;50.534;12.784;2023-06-22T20:18:22;14.80;;;8.93;;
73893;SDS011;62699;50.534;12.784;2023-06-22T20:23:22;13.75;;;8.48;;
73893;SDS011;62699;50.534;12.784;2023-06-22T20:28:24;16.00;;;8.52;;
73893;SDS011;62699;50.534;12.784;2023-06-22T20:33:25;12.15;;;8.07;;
73893;SDS011;62699;50.534;12.784;2023-06-22T20:38:26;13.43;;;8.80;;
73893;SDS011;62699;50.534;12.784;2023-06-22T20:43:28;11.32;;;8.35;;
73893;SDS011;62699;50.534;12.784;2023-06-22T20:48:28;10.80;;;8.40;;
73893;SDS011;62699;50.534;12.784;2023-06-22T20:53:30;11.63;;;8.00;;
73893;SDS011;62699;50.534;12.784;2023-06-22T20:58:31;13.77;;;8.57;;
73893;SDS011;62699;50.534;12.784;2023-06-22T21:03:31;10.77;;;7.45;;
73893;SDS011;62699;50.534;12.784;2023-06-22T21:08:36;12.85;;;7.60;;
73893;SDS011;62699;50.534;12.784;2023-06-22T21:13:38;10.65;;;5.75;;
73893;SDS011;62699;50.534;12.784;2023-06-22T21:18:41;9.57;;;4.93;;
73893;SDS011;62699;50.534;12.784;2023-06-22T21:23:44;15.75;;;3.85;;
73893;SDS011;62699;50.534;12.784;2023-06-22T21:28:45;13.82;;;4.05;;
73893;SDS011;62699;50.534;12.784;2023-06-22T21:33:46;12.52;;;3.80;;
73893;SDS011;62699;50.534;12.784;2023-06-22T21:38:49;10.13;;;2.80;;
73893;SDS011;62699;50.534;12.784;2023-06-22T21:43:49;7.75;;;2.40;;
73893;SDS011;62699;50.534;12.784;2023-06-22T21:48:50;7.13;;;2.47;;
73893;SDS011;62699;50.534;12.784;2023-06-22T21:53:54;9.85;;;3.42;;
73893;SDS011;62699;50.534;12.784;2023-06-22T21:58:56;7.25;;;2.72;;
73893;SDS011;62699;50.534;12.784;2023-06-22T22:03:56;6.68;;;2.20;;
73893;SDS011;62699;50.534;12.784;2023-06-22T22:08:58;5.60;;;2.33;;
73893;SDS011;62699;50.534;12.784;2023-06-22T22:13:59;9.18;;;2.55;;
73893;SDS011;62699;50.534;12.784;2023-06-22T22:18:59;5.65;;;2.15;;
73893;SDS011;62699;50.534;12.784;2023-06-22T22:24:01;7.03;;;2.60;;
73893;SDS011;62699;50.534;12.784;2023-06-22T22:29:03;9.63;;;3.17;;
73893;SDS011;62699;50.534;12.784;2023-06-22T22:34:06;7.38;;;2.60;;
73893;SDS011;62699;50.534;12.784;2023-06-22T22:39:09;10.85;;;2.90;;
73893;SDS011;62699;50.534;12.784;2023-06-22T22:44:10;9.40;;;2.72;;
73893;SDS011;62699;50.534;12.784;2023-06-22T22:49:12;12.57;;;3.05;;
73893;SDS011;62699;50.534;12.784;2023-06-22T22:54:13;6.20;;;2.75;;
73893;SDS011;62699;50.534;12.784;2023-06-22T22:59:14;8.55;;;2.78;;
73893;SDS011;62699;50.534;12.784;2023-06-22T23:04:14;9.23;;;2.70;;
73893;SDS011;62699;50.534;12.784;2023-06-22T23:09:18;9.88;;;3.05;;
73893;SDS011;62699;50.534;12.784;2023-06-22T23:14:18;7.65;;;2.83;;
73893;SDS011;62699;50.534;12.784;2023-06-22T23:19:19;8.63;;;2.53;;
73893;SDS011;62699;50.534;12.784;2023-06-22T23:24:21;9.65;;;3.00;;
73893;SDS011;62699;50.534;12.784;2023-06-22T23:29:22;8.23;;;2.95;;
73893;SDS011;62699;50.534;12.784;2023-06-22T23:34:23;8.13;;;2.95;;
73893;SDS011;62699;50.534;12.784;2023-06-22T23:39:23;9.15;;;3.25;;
73893;SDS011;62699;50.534;12.784;2023-06-22T23:44:24;6.80;;;3.03;;
73893;SDS011;62699;50.534;12.784;2023-06-22T23:49:26;7.35;;;3.50;;
73893;SDS011;62699;50.534;12.784;2023-06-22T23:54:29;8.75;;;3.33;;
73893;SDS011;62699;50.534;12.784;2023-06-22T23:59:29;9.07;;;3.47;;
